createdAt,value
2018-08-13T00:00:44.271Z,976.17
2018-08-13T00:01:44.243Z,976.13
2018-08-13T00:02:44.224Z,976.15
2018-08-13T00:03:44.176Z,976.13
2018-08-13T00:04:44.146Z,976.15
2018-08-13T00:05:44.108Z,976.13
2018-08-13T00:06:44.076Z,976.13
2018-08-13T00:07:44.044Z,976.13
2018-08-13T00:08:44.009Z,976.12
2018-08-13T00:09:43.984Z,976.09
2018-08-13T00:10:43.949Z,976.08
2018-08-13T00:11:43.919Z,976.07
2018-08-13T00:12:43.886Z,976.00
2018-08-13T00:13:43.846Z,976.06
2018-08-13T00:14:43.816Z,975.97
2018-08-13T00:15:43.787Z,975.97
2018-08-13T00:16:43.756Z,975.95
2018-08-13T00:17:43.813Z,975.93
2018-08-13T00:18:43.694Z,975.94
2018-08-13T00:19:43.655Z,975.91
2018-08-13T00:20:43.622Z,975.87
2018-08-13T00:21:43.594Z,975.85
2018-08-13T00:22:43.560Z,975.80
2018-08-13T00:23:43.527Z,975.81
2018-08-13T00:24:43.497Z,975.81
2018-08-13T00:25:43.466Z,975.77
2018-08-13T00:26:43.430Z,975.74
2018-08-13T00:27:43.395Z,975.75
2018-08-13T00:28:43.365Z,975.71
2018-08-13T00:29:43.334Z,975.72
2018-08-13T00:30:43.303Z,975.73
2018-08-13T00:31:43.268Z,975.69
2018-08-13T00:32:43.232Z,975.70
2018-08-13T00:33:43.205Z,975.70
2018-08-13T00:34:43.173Z,975.71
2018-08-13T00:35:43.139Z,975.69
2018-08-13T00:36:43.109Z,975.68
2018-08-13T00:37:43.070Z,975.69
2018-08-13T00:38:43.047Z,975.67
2018-08-13T00:39:43.008Z,975.71
2018-08-13T00:40:42.974Z,975.69
2018-08-13T00:41:42.947Z,975.68
2018-08-13T00:42:42.916Z,975.66
2018-08-13T00:43:42.883Z,975.63
2018-08-13T00:44:42.852Z,975.68
2018-08-13T00:45:42.813Z,975.68
2018-08-13T00:46:42.825Z,975.66
2018-08-13T00:47:42.752Z,975.66
2018-08-13T00:48:42.726Z,975.67
2018-08-13T00:49:42.684Z,975.59
2018-08-13T00:50:42.662Z,975.62
2018-08-13T00:51:42.623Z,975.64
2018-08-13T00:52:42.594Z,975.59
2018-08-13T00:53:42.563Z,975.61
2018-08-13T00:54:42.528Z,975.57
2018-08-13T00:55:42.493Z,975.55
2018-08-13T00:56:42.460Z,975.56
2018-08-13T00:57:42.437Z,975.58
2018-08-13T00:58:42.399Z,975.58
2018-08-13T00:59:42.374Z,975.57
2018-08-13T01:00:42.338Z,975.53
2018-08-13T01:01:42.298Z,975.49
2018-08-13T01:02:42.269Z,975.50
2018-08-13T01:03:42.239Z,975.51
2018-08-13T01:04:42.210Z,975.51
2018-08-13T01:05:42.170Z,975.51
2018-08-13T01:06:42.140Z,975.53
2018-08-13T01:07:42.107Z,975.55
2018-08-13T01:08:42.078Z,975.52
2018-08-13T01:09:42.048Z,975.52
2018-08-13T01:10:42.014Z,975.51
2018-08-13T01:11:41.981Z,975.44
2018-08-13T01:12:41.952Z,975.43
2018-08-13T01:13:41.913Z,975.42
2018-08-13T01:14:41.885Z,975.38
2018-08-13T01:15:41.851Z,975.35
2018-08-13T01:16:41.821Z,975.32
2018-08-13T01:17:41.790Z,975.31
2018-08-13T01:18:41.757Z,975.29
2018-08-13T01:19:41.724Z,975.27
2018-08-13T01:20:41.689Z,975.27
2018-08-13T01:21:41.663Z,975.19
2018-08-13T01:22:41.632Z,975.20
2018-08-13T01:23:41.596Z,975.13
2018-08-13T01:24:41.570Z,975.16
2018-08-13T01:25:41.529Z,975.14
2018-08-13T01:26:41.500Z,975.16
2018-08-13T01:27:41.466Z,975.13
2018-08-13T01:28:41.436Z,975.11
2018-08-13T01:29:41.411Z,975.10
2018-08-13T01:30:41.370Z,975.11
2018-08-13T01:31:41.344Z,975.08
2018-08-13T01:32:41.308Z,975.10
2018-08-13T01:33:41.270Z,975.12
2018-08-13T01:34:41.245Z,975.11
2018-08-13T01:35:41.221Z,975.07
2018-08-13T01:36:41.181Z,975.11
2018-08-13T01:37:41.141Z,975.10
2018-08-13T01:38:41.114Z,975.11
2018-08-13T01:39:41.081Z,975.13
2018-08-13T01:40:41.048Z,975.10
2018-08-13T01:41:41.019Z,975.13
2018-08-13T01:42:40.988Z,975.05
2018-08-13T01:43:40.954Z,975.00
2018-08-13T01:44:40.923Z,974.98
2018-08-13T01:45:40.884Z,974.97
2018-08-13T01:46:40.865Z,974.90
2018-08-13T01:47:40.823Z,974.87
2018-08-13T01:48:40.788Z,974.84
2018-08-13T01:49:40.761Z,974.81
2018-08-13T01:50:40.742Z,974.75
2018-08-13T01:51:40.692Z,974.73
2018-08-13T01:52:40.660Z,974.73
2018-08-13T01:53:40.632Z,974.73
2018-08-13T01:54:40.599Z,974.73
2018-08-13T01:55:40.566Z,974.72
2018-08-13T01:56:40.536Z,974.71
2018-08-13T01:57:40.501Z,974.70
2018-08-13T01:58:40.469Z,974.66
2018-08-13T01:59:40.441Z,974.63
2018-08-13T02:00:40.403Z,974.60
2018-08-13T02:01:40.434Z,974.57
2018-08-13T02:02:40.342Z,974.55
2018-08-13T02:03:40.312Z,974.54
2018-08-13T02:04:40.282Z,974.59
2018-08-13T02:05:40.244Z,974.61
2018-08-13T02:06:40.213Z,974.63
2018-08-13T02:07:40.183Z,974.61
2018-08-13T02:08:40.154Z,974.58
2018-08-13T02:09:40.115Z,974.58
2018-08-13T02:10:40.087Z,974.59
2018-08-13T02:11:40.061Z,974.58
2018-08-13T02:12:40.024Z,974.59
2018-08-13T02:13:40.025Z,974.54
2018-08-13T02:14:39.963Z,974.50
2018-08-13T02:15:39.936Z,974.53
2018-08-13T02:16:39.901Z,974.51
2018-08-13T02:17:39.864Z,974.51
2018-08-13T02:18:39.832Z,974.48
2018-08-13T02:19:39.799Z,974.52
2018-08-13T02:20:39.768Z,974.49
2018-08-13T02:21:39.740Z,974.49
2018-08-13T02:22:39.708Z,974.47
2018-08-13T02:23:39.672Z,974.43
2018-08-13T02:24:39.638Z,974.44
2018-08-13T02:25:39.614Z,974.39
2018-08-13T02:26:39.579Z,974.39
2018-08-13T02:27:39.547Z,974.42
2018-08-13T02:28:39.519Z,974.40
2018-08-13T02:29:39.482Z,974.38
2018-08-13T02:30:39.451Z,974.36
2018-08-13T02:31:39.419Z,974.38
2018-08-13T02:32:39.392Z,974.35
2018-08-13T02:33:39.360Z,974.36
2018-08-13T02:34:39.328Z,974.35
2018-08-13T02:35:39.310Z,974.31
2018-08-13T02:36:39.272Z,974.28
2018-08-13T02:37:39.228Z,974.31
2018-08-13T02:38:39.201Z,974.26
2018-08-13T02:39:39.177Z,974.23
2018-08-13T02:40:39.139Z,974.20
2018-08-13T02:41:39.104Z,974.19
2018-08-13T02:42:39.078Z,974.14
2018-08-13T02:43:39.040Z,974.15
2018-08-13T02:44:39.026Z,974.21
2018-08-13T02:45:38.981Z,974.20
2018-08-13T02:46:38.948Z,974.21
2018-08-13T02:47:38.915Z,974.25
2018-08-13T02:48:38.890Z,974.28
2018-08-13T02:49:38.847Z,974.28
2018-08-13T02:50:38.818Z,974.36
2018-08-13T02:51:38.788Z,974.62
2018-08-13T02:52:38.753Z,974.75
2018-08-13T02:53:38.729Z,974.78
2018-08-13T02:54:38.695Z,974.87
2018-08-13T02:55:38.661Z,974.86
2018-08-13T02:56:38.630Z,974.91
2018-08-13T02:57:38.603Z,974.88
2018-08-13T02:58:38.568Z,974.93
2018-08-13T02:59:38.543Z,974.89
2018-08-13T03:00:38.547Z,974.88
2018-08-13T03:01:38.474Z,974.83
2018-08-13T03:02:38.451Z,974.87
2018-08-13T03:03:38.413Z,974.82
2018-08-13T03:04:38.419Z,974.79
2018-08-13T03:05:38.347Z,974.74
2018-08-13T03:06:38.316Z,974.74
2018-08-13T03:07:38.283Z,974.74
2018-08-13T03:08:38.254Z,974.76
2018-08-13T03:09:38.215Z,974.76
2018-08-13T03:10:38.185Z,974.75
2018-08-13T03:11:38.156Z,974.81
2018-08-13T03:12:38.129Z,974.78
2018-08-13T03:13:38.091Z,974.78
2018-08-13T03:14:38.058Z,974.75
2018-08-13T03:15:38.029Z,974.72
2018-08-13T03:16:37.994Z,974.70
2018-08-13T03:17:37.967Z,974.71
2018-08-13T03:18:37.934Z,974.57
2018-08-13T03:19:37.902Z,974.60
2018-08-13T03:20:37.877Z,974.59
2018-08-13T03:21:37.834Z,974.58
2018-08-13T03:22:37.809Z,974.55
2018-08-13T03:23:37.779Z,974.56
2018-08-13T03:24:37.745Z,974.50
2018-08-13T03:25:37.724Z,974.56
2018-08-13T03:26:37.680Z,974.51
2018-08-13T03:27:37.651Z,974.49
2018-08-13T03:28:37.614Z,974.47
2018-08-13T03:29:37.588Z,974.42
2018-08-13T03:30:37.556Z,974.44
2018-08-13T03:31:37.522Z,974.43
2018-08-13T03:32:37.498Z,974.40
2018-08-13T03:33:37.517Z,974.32
2018-08-13T03:34:37.425Z,974.29
2018-08-13T03:35:37.392Z,974.24
2018-08-13T03:36:37.360Z,974.26
2018-08-13T03:37:37.333Z,974.31
2018-08-13T03:38:37.302Z,974.31
2018-08-13T03:39:37.268Z,974.36
2018-08-13T03:40:37.242Z,974.35
2018-08-13T03:41:37.202Z,974.39
2018-08-13T03:42:37.171Z,974.41
2018-08-13T03:43:37.141Z,974.44
2018-08-13T03:44:37.112Z,974.42
2018-08-13T03:45:37.073Z,974.43
2018-08-13T03:46:37.046Z,974.43
2018-08-13T03:47:37.012Z,974.43
2018-08-13T03:48:36.980Z,974.44
2018-08-13T03:49:36.950Z,974.43
2018-08-13T03:50:36.918Z,974.50
2018-08-13T03:51:36.887Z,974.52
2018-08-13T03:52:36.857Z,974.54
2018-08-13T03:53:36.820Z,974.61
2018-08-13T04:07:29.398Z,975.12
2018-08-13T04:08:29.326Z,975.14
2018-08-13T04:09:29.287Z,975.17
2018-08-13T04:10:29.251Z,975.14
2018-08-13T04:11:29.217Z,975.18
2018-08-13T04:12:29.175Z,975.19
2018-08-13T04:13:29.143Z,975.24
2018-08-13T04:14:29.106Z,975.26
2018-08-13T04:15:29.071Z,975.23
2018-08-13T04:16:29.041Z,975.22
2018-08-13T04:17:29.009Z,975.25
2018-08-13T04:18:28.973Z,975.31
2018-08-13T04:19:28.939Z,975.29
2018-08-13T04:20:28.898Z,975.27
2018-08-13T04:21:28.867Z,975.23
2018-08-13T04:22:28.836Z,975.22
2018-08-13T04:23:28.802Z,975.19
2018-08-13T04:24:28.768Z,975.18
2018-08-13T04:25:28.736Z,975.27
2018-08-13T04:26:28.704Z,975.29
2018-08-13T04:27:28.663Z,975.36
2018-08-13T04:28:28.637Z,975.39
2018-08-13T04:29:28.602Z,975.39
2018-08-13T04:30:28.568Z,975.37
2018-08-13T04:31:28.535Z,975.40
2018-08-13T04:32:28.497Z,975.37
2018-08-13T04:33:28.506Z,975.33
2018-08-13T04:34:28.434Z,975.37
2018-08-13T04:35:28.399Z,975.38
2018-08-13T04:36:28.371Z,975.40
2018-08-13T04:37:28.336Z,975.44
2018-08-13T04:38:28.303Z,975.42
2018-08-13T04:39:28.266Z,975.48
2018-08-13T04:40:28.260Z,975.46
2018-08-13T04:41:28.206Z,975.48
2018-08-13T04:42:28.173Z,975.47
2018-08-13T04:43:28.142Z,975.48
2018-08-13T04:44:28.102Z,975.51
2018-08-13T04:45:28.072Z,975.49
2018-08-13T04:46:28.039Z,975.49
2018-08-13T04:47:28.004Z,975.50
2018-08-13T04:48:27.976Z,975.48
2018-08-13T04:49:27.942Z,975.49
2018-08-13T04:50:27.908Z,975.45
2018-08-13T04:51:27.879Z,975.52
2018-08-13T04:52:27.840Z,975.48
2018-08-13T04:53:27.808Z,975.45
2018-08-13T04:54:27.778Z,975.49
2018-08-13T04:55:27.749Z,975.47
2018-08-13T04:56:27.709Z,975.46
2018-08-13T04:57:27.678Z,975.40
2018-08-13T04:58:27.647Z,975.40
2018-08-13T04:59:27.610Z,975.43
2018-08-13T05:00:27.586Z,975.40
2018-08-13T05:01:27.549Z,975.39
2018-08-13T05:02:27.516Z,975.43
2018-08-13T05:03:27.479Z,975.52
2018-08-13T05:04:27.454Z,975.52
2018-08-13T05:05:27.418Z,975.52
2018-08-13T05:06:27.398Z,975.63
2018-08-13T05:07:27.418Z,975.69
2018-08-13T05:08:27.317Z,975.81
2018-08-13T05:09:27.285Z,975.85
2018-08-13T05:10:27.259Z,975.95
2018-08-13T05:11:27.224Z,976.03
2018-08-13T05:12:27.185Z,976.16
2018-08-13T05:13:27.157Z,976.19
2018-08-13T05:14:27.121Z,976.17
2018-08-13T05:15:27.088Z,976.16
2018-08-13T05:16:27.061Z,976.11
2018-08-13T05:17:27.027Z,976.09
2018-08-13T05:18:26.997Z,976.03
2018-08-13T05:19:26.964Z,975.89
2018-08-13T05:20:26.926Z,975.80
2018-08-13T05:21:26.894Z,975.80
2018-08-13T05:22:26.861Z,975.74
2018-08-13T05:23:26.827Z,975.65
2018-08-13T05:24:26.809Z,975.60
2018-08-13T05:25:26.766Z,975.49
2018-08-13T05:26:26.734Z,975.33
2018-08-13T05:27:26.698Z,975.15
2018-08-13T05:28:26.669Z,975.01
2018-08-13T05:29:26.637Z,974.85
2018-08-13T05:30:26.659Z,974.76
2018-08-13T05:31:26.572Z,974.76
2018-08-13T05:32:26.531Z,974.80
2018-08-13T05:33:26.502Z,974.85
2018-08-13T05:34:26.466Z,974.82
2018-08-13T05:35:26.432Z,974.82
2018-08-13T05:36:26.406Z,974.82
2018-08-13T05:37:26.369Z,974.81
2018-08-13T05:38:26.336Z,974.75
2018-08-13T05:39:26.305Z,974.66
2018-08-13T05:40:26.267Z,974.55
2018-08-13T05:41:26.238Z,974.49
2018-08-13T05:42:26.205Z,974.43
2018-08-13T05:43:26.173Z,974.39
2018-08-13T05:44:26.134Z,974.35
2018-08-13T05:45:26.105Z,974.37
2018-08-13T05:46:26.071Z,974.31
2018-08-13T05:47:26.038Z,974.28
2018-08-13T05:48:26.009Z,974.25
2018-08-13T05:49:25.976Z,974.23
2018-08-13T05:50:25.942Z,974.21
2018-08-13T05:51:25.910Z,974.12
2018-08-13T05:52:25.869Z,974.12
2018-08-13T05:53:25.838Z,974.11
2018-08-13T05:54:25.807Z,974.17
2018-08-13T05:55:25.771Z,974.18
2018-08-13T05:56:25.743Z,974.20
2018-08-13T05:57:25.707Z,974.21
2018-08-13T05:58:25.674Z,974.19
2018-08-13T05:59:25.644Z,974.20
2018-08-13T06:00:25.615Z,974.17
2018-08-13T06:01:25.575Z,974.16
2018-08-13T06:02:25.547Z,974.15
2018-08-13T06:03:25.509Z,974.12
2018-08-13T06:04:25.494Z,974.01
2018-08-13T06:05:25.439Z,974.05
2018-08-13T06:06:25.405Z,974.05
2018-08-13T06:07:25.372Z,974.04
2018-08-13T06:08:25.345Z,974.01
2018-08-13T06:09:25.311Z,974.04
2018-08-13T06:10:25.275Z,974.07
2018-08-13T06:11:25.339Z,974.13
2018-08-13T06:12:25.203Z,974.13
2018-08-13T06:13:25.171Z,974.15
2018-08-13T06:14:25.141Z,974.22
2018-08-13T06:15:25.110Z,974.21
2018-08-13T06:16:25.068Z,974.28
2018-08-13T06:17:25.037Z,974.30
2018-08-13T06:18:25.003Z,974.32
2018-08-13T06:19:24.969Z,974.35
2018-08-13T06:20:24.940Z,974.40
2018-08-13T06:21:24.904Z,974.38
2018-08-13T06:22:24.889Z,974.40
2018-08-13T06:23:24.837Z,974.41
2018-08-13T06:24:24.842Z,974.46
2018-08-13T06:25:24.767Z,974.46
2018-08-13T06:26:24.733Z,974.43
2018-08-13T06:27:24.697Z,974.57
2018-08-13T06:28:24.670Z,974.61
2018-08-13T06:29:24.636Z,974.72
2018-08-13T06:30:24.600Z,974.72
2018-08-13T06:31:24.562Z,974.78
2018-08-13T06:32:24.535Z,974.77
2018-08-13T06:33:24.500Z,974.77
2018-08-13T06:34:24.469Z,974.84
2018-08-13T06:35:24.434Z,974.80
2018-08-13T06:36:24.393Z,974.85
2018-08-13T06:37:24.367Z,974.94
2018-08-13T06:38:24.330Z,974.95
2018-08-13T06:39:24.293Z,974.99
2018-08-13T06:40:24.265Z,975.00
2018-08-13T06:41:24.231Z,975.06
2018-08-13T06:42:24.197Z,975.07
2018-08-13T06:43:24.165Z,975.06
2018-08-13T06:44:24.126Z,975.07
2018-08-13T06:45:24.095Z,975.09
2018-08-13T06:46:24.062Z,975.08
2018-08-13T06:47:24.033Z,975.14
2018-08-13T06:48:23.996Z,975.17
2018-08-13T06:49:23.967Z,975.19
2018-08-13T06:50:23.934Z,975.26
2018-08-13T06:51:23.891Z,975.24
2018-08-13T06:52:23.865Z,975.24
2018-08-13T06:53:23.829Z,975.27
2018-08-13T06:54:23.794Z,975.19
2018-08-13T06:55:23.770Z,975.16
2018-08-13T06:56:23.724Z,975.12
2018-08-13T06:57:23.694Z,975.08
2018-08-13T06:58:23.659Z,975.09
2018-08-13T06:59:23.621Z,975.07
2018-08-13T07:00:23.602Z,975.10
2018-08-13T07:01:23.559Z,975.11
2018-08-13T07:02:23.526Z,975.13
2018-08-13T07:03:23.491Z,975.19
2018-08-13T07:04:23.462Z,975.20
2018-08-13T07:05:23.428Z,975.24
2018-08-13T07:06:23.393Z,975.27
2018-08-13T07:07:23.361Z,975.27
2018-08-13T07:08:23.320Z,975.20
2018-08-13T07:09:23.288Z,975.18
2018-08-13T07:10:23.258Z,975.18
2018-08-13T07:11:23.219Z,975.18
2018-08-13T07:12:23.192Z,975.14
2018-08-13T07:13:23.157Z,975.10
2018-08-13T07:14:23.122Z,975.09
2018-08-13T07:15:23.093Z,975.13
2018-08-13T07:16:23.051Z,975.10
2018-08-13T07:17:23.020Z,975.10
2018-08-13T07:18:22.989Z,975.03
2018-08-13T07:19:22.960Z,975.01
2018-08-13T07:20:22.917Z,975.01
2018-08-13T07:21:22.886Z,975.02
2018-08-13T07:22:22.887Z,975.04
2018-08-13T07:23:22.817Z,975.10
2018-08-13T07:24:22.790Z,975.11
2018-08-13T07:25:22.754Z,975.14
2018-08-13T07:26:22.721Z,975.13
2018-08-13T07:27:22.690Z,975.10
2018-08-13T07:28:22.650Z,975.14
2018-08-13T07:29:22.619Z,975.19
2018-08-13T07:30:22.587Z,975.21
2018-08-13T07:31:22.550Z,975.20
2018-08-13T07:32:22.523Z,975.23
2018-08-13T07:33:22.532Z,975.26
2018-08-13T07:34:22.454Z,975.29
2018-08-13T07:35:22.418Z,975.33
2018-08-13T07:36:22.391Z,975.37
2018-08-13T07:37:22.357Z,975.38
2018-08-13T07:38:22.322Z,975.41
2018-08-13T07:39:22.316Z,975.42
2018-08-13T07:40:22.253Z,975.44
2018-08-13T07:41:22.222Z,975.43
2018-08-13T07:42:22.190Z,975.48
2018-08-13T07:43:22.155Z,975.49
2018-08-13T07:44:22.130Z,975.47
2018-08-13T07:45:22.092Z,975.52
2018-08-13T07:46:22.100Z,975.52
2018-08-13T07:47:22.028Z,975.51
2018-08-13T07:48:21.991Z,975.52
2018-08-13T07:49:21.958Z,975.50
2018-08-13T07:50:21.928Z,975.50
2018-08-13T07:51:21.896Z,975.47
2018-08-13T07:52:21.857Z,975.47
2018-08-13T07:53:21.830Z,975.45
2018-08-13T07:54:21.798Z,975.45
2018-08-13T07:55:21.759Z,975.41
2018-08-13T07:56:21.732Z,975.36
2018-08-13T07:57:21.696Z,975.34
2018-08-13T07:58:21.664Z,975.38
2018-08-13T07:59:21.635Z,975.25
2018-08-13T08:00:21.595Z,975.34
2018-08-13T08:01:21.565Z,975.34
2018-08-13T08:02:21.532Z,975.24
2018-08-13T08:03:21.495Z,975.27
2018-08-13T08:04:21.472Z,975.29
2018-08-13T08:05:21.435Z,975.29
2018-08-13T08:06:21.416Z,975.27
2018-08-13T08:07:21.368Z,975.27
2018-08-13T08:08:21.337Z,975.26
2018-08-13T08:09:21.313Z,975.30
2018-08-13T08:10:21.276Z,975.33
2018-08-13T08:11:21.240Z,975.37
2018-08-13T08:12:21.203Z,975.37
2018-08-13T08:13:21.169Z,975.38
2018-08-13T08:14:21.138Z,975.41
2018-08-13T08:15:21.102Z,975.40
2018-08-13T08:16:21.075Z,975.38
2018-08-13T08:17:21.045Z,975.39
2018-08-13T08:18:21.010Z,975.42
2018-08-13T08:19:20.977Z,975.39
2018-08-13T08:20:20.937Z,975.36
2018-08-13T08:21:20.931Z,975.37
2018-08-13T08:22:20.876Z,975.36
2018-08-13T08:23:20.847Z,975.41
2018-08-13T08:24:20.805Z,975.37
2018-08-13T08:25:20.785Z,975.37
2018-08-13T08:26:20.749Z,975.40
2018-08-13T08:27:20.706Z,975.41
2018-08-13T08:28:20.679Z,975.40
2018-08-13T08:29:20.659Z,975.41
2018-08-13T08:30:20.615Z,975.43
2018-08-13T08:31:20.581Z,975.45
2018-08-13T08:32:20.543Z,975.45
2018-08-13T08:33:20.511Z,975.44
2018-08-13T08:34:20.481Z,975.45
2018-08-13T08:35:20.454Z,975.46
2018-08-13T08:36:20.416Z,975.48
2018-08-13T08:37:20.381Z,975.47
2018-08-13T08:38:20.347Z,975.49
2018-08-13T08:39:20.311Z,975.45
2018-08-13T08:40:20.308Z,975.47
2018-08-13T08:41:20.271Z,975.47
2018-08-13T08:42:20.217Z,975.42
2018-08-13T08:43:20.187Z,975.42
2018-08-13T08:44:20.147Z,975.46
2018-08-13T08:45:20.116Z,975.40
2018-08-13T08:46:20.083Z,975.40
2018-08-13T08:47:20.048Z,975.40
2018-08-13T08:48:20.021Z,975.37
2018-08-13T08:49:19.987Z,975.37
2018-08-13T08:50:19.956Z,975.36
2018-08-13T08:51:19.923Z,975.38
2018-08-13T08:52:19.884Z,975.39
2018-08-13T08:53:19.855Z,975.35
2018-08-13T08:54:19.823Z,975.37
2018-08-13T08:55:19.791Z,975.33
2018-08-13T08:56:19.753Z,975.32
2018-08-13T08:57:19.728Z,975.35
2018-08-13T08:58:19.690Z,975.36
2018-08-13T08:59:19.653Z,975.36
2018-08-13T09:00:19.628Z,975.36
2018-08-13T09:01:19.593Z,975.33
2018-08-13T09:02:19.561Z,975.37
2018-08-13T09:03:19.530Z,975.43
2018-08-13T09:04:19.493Z,975.39
2018-08-13T09:05:19.463Z,975.39
2018-08-13T09:06:19.428Z,975.34
2018-08-13T09:07:19.393Z,975.38
2018-08-13T09:08:19.369Z,975.37
2018-08-13T09:09:19.332Z,975.40
2018-08-13T09:10:19.298Z,975.43
2018-08-13T09:11:19.265Z,975.44
2018-08-13T09:12:19.235Z,975.45
2018-08-13T09:13:19.202Z,975.39
2018-08-13T09:14:19.251Z,975.39
2018-08-13T09:15:19.138Z,975.34
2018-08-13T09:16:19.100Z,975.35
2018-08-13T09:17:19.073Z,975.32
2018-08-13T09:18:19.037Z,975.35
2018-08-13T09:19:19.003Z,975.33
2018-08-13T09:20:18.974Z,975.30
2018-08-13T09:21:18.944Z,975.40
2018-08-13T09:22:18.916Z,975.36
2018-08-13T09:23:18.877Z,975.36
2018-08-13T09:24:18.844Z,975.37
2018-08-13T09:25:18.809Z,975.30
2018-08-13T09:26:18.786Z,975.36
2018-08-13T09:27:18.747Z,975.33
2018-08-13T09:28:18.715Z,975.31
2018-08-13T09:29:18.680Z,975.31
2018-08-13T09:30:18.649Z,975.27
2018-08-13T09:31:18.618Z,975.27
2018-08-13T09:32:18.589Z,975.26
2018-08-13T09:33:18.566Z,975.29
2018-08-13T09:34:18.525Z,975.27
2018-08-13T09:35:18.490Z,975.26
2018-08-13T09:36:18.456Z,975.22
2018-08-13T09:37:18.428Z,975.23
2018-08-13T09:38:19.165Z,975.28
2018-08-13T09:39:18.361Z,975.29
2018-08-13T09:40:18.329Z,975.31
2018-08-13T09:41:18.300Z,975.24
2018-08-13T09:42:18.262Z,975.23
2018-08-13T09:43:18.231Z,975.25
2018-08-13T09:44:18.202Z,975.25
2018-08-13T09:45:18.175Z,975.26
2018-08-13T09:46:18.140Z,975.26
2018-08-13T09:47:18.107Z,975.29
2018-08-13T09:48:18.074Z,975.31
2018-08-13T09:49:18.040Z,975.30
2018-08-13T09:50:18.008Z,975.32
2018-08-13T09:51:17.980Z,975.31
2018-08-13T09:52:17.947Z,975.27
2018-08-13T09:53:17.919Z,975.28
2018-08-13T09:54:17.889Z,975.22
2018-08-13T09:55:17.853Z,975.23
2018-08-13T09:56:17.821Z,975.21
2018-08-13T09:57:17.786Z,975.20
2018-08-13T09:58:17.764Z,975.13
2018-08-13T09:59:17.727Z,975.17
2018-08-13T10:00:17.748Z,975.17
2018-08-13T10:01:17.665Z,975.17
2018-08-13T10:02:17.630Z,975.15
2018-08-13T10:03:17.604Z,975.17
2018-08-13T10:04:17.568Z,975.21
2018-08-13T10:05:17.541Z,975.31
2018-08-13T10:06:17.509Z,975.28
2018-08-13T10:07:17.478Z,975.30
2018-08-13T10:20:47.318Z,975.23
2018-08-13T10:21:47.250Z,975.42
2018-08-13T10:22:47.320Z,975.30
2018-08-13T10:23:47.175Z,975.27
2018-08-13T10:24:47.140Z,975.42
2018-08-13T10:25:47.108Z,975.41
2018-08-13T10:26:47.077Z,975.37
2018-08-13T10:27:47.045Z,975.27
2018-08-13T10:28:47.011Z,975.24
2018-08-13T10:29:47.010Z,975.17
2018-08-13T10:30:46.943Z,975.22
2018-08-13T10:31:46.910Z,975.27
2018-08-13T10:32:46.886Z,975.20
2018-08-13T10:33:46.851Z,975.23
2018-08-13T10:34:46.816Z,975.26
2018-08-13T10:35:46.787Z,975.21
2018-08-13T10:36:46.755Z,975.21
2018-08-13T10:37:46.722Z,975.22
2018-08-13T10:38:46.694Z,975.18
2018-08-13T10:39:46.667Z,975.25
2018-08-13T10:40:46.639Z,975.26
2018-08-13T10:41:46.602Z,975.23
2018-08-13T10:42:46.569Z,975.18
2018-08-13T10:43:46.536Z,975.19
2018-08-13T10:44:46.532Z,975.24
2018-08-13T10:45:46.480Z,975.16
2018-08-13T10:46:46.447Z,975.16
2018-08-13T10:47:46.422Z,975.13
2018-08-13T10:48:46.384Z,975.22
2018-08-13T10:49:46.354Z,975.20
2018-08-13T10:50:46.330Z,975.20
2018-08-13T10:51:46.300Z,975.23
2018-08-13T10:52:46.268Z,975.15
2018-08-13T10:53:46.233Z,975.03
2018-08-13T10:54:46.203Z,975.07
2018-08-13T10:55:46.172Z,975.02
2018-08-13T10:56:46.144Z,974.97
2018-08-13T10:57:46.114Z,974.99
2018-08-13T10:58:46.085Z,975.01
2018-08-13T10:59:46.062Z,975.07
2018-08-13T11:00:46.029Z,975.03
2018-08-13T11:01:45.996Z,974.92
2018-08-13T11:02:45.981Z,975.09
2018-08-13T11:03:45.933Z,974.98
2018-08-13T11:04:45.909Z,975.05
2018-08-13T11:05:45.878Z,974.95
2018-08-13T11:06:45.846Z,974.92
2018-08-13T11:07:45.815Z,975.03
2018-08-13T11:08:45.786Z,974.96
2018-08-13T11:09:45.757Z,974.93
2018-08-13T11:10:45.730Z,975.01
2018-08-13T11:11:45.705Z,974.95
2018-08-13T11:12:45.672Z,975.00
2018-08-13T11:13:45.640Z,975.01
2018-08-13T11:14:45.610Z,975.07
2018-08-13T11:15:45.577Z,975.06
2018-08-13T11:16:45.548Z,975.05
2018-08-13T11:17:45.521Z,975.04
2018-08-13T11:18:45.494Z,974.93
2018-08-13T11:19:45.466Z,974.99
2018-08-13T11:20:45.429Z,975.07
2018-08-13T11:21:45.499Z,974.85
2018-08-13T11:22:45.374Z,974.88
2018-08-13T11:23:45.350Z,974.86
2018-08-13T11:24:45.318Z,974.89
2018-08-13T11:25:45.287Z,974.93
2018-08-13T11:26:45.257Z,974.88
2018-08-13T11:27:45.226Z,974.84
2018-08-13T11:28:45.289Z,974.85
2018-08-13T11:29:45.173Z,974.81
2018-08-13T11:30:45.143Z,974.85
2018-08-13T11:31:45.112Z,974.84
2018-08-13T11:32:45.085Z,974.85
2018-08-13T11:33:45.053Z,974.88
2018-08-13T11:34:45.052Z,974.94
2018-08-13T11:35:44.989Z,974.94
2018-08-13T11:36:44.965Z,974.79
2018-08-13T11:37:44.934Z,974.80
2018-08-13T11:38:44.903Z,974.80
2018-08-13T11:39:44.874Z,974.75
2018-08-13T11:40:44.919Z,974.78
2018-08-13T11:41:44.813Z,974.78
2018-08-13T11:42:44.787Z,974.81
2018-08-13T11:43:44.762Z,974.75
2018-08-13T11:44:44.731Z,974.73
2018-08-13T11:45:44.697Z,974.74
2018-08-13T11:46:44.668Z,974.74
2018-08-13T11:47:44.640Z,974.71
2018-08-13T11:48:44.610Z,974.71
2018-08-13T11:49:44.577Z,974.80
2018-08-13T11:50:44.553Z,974.86
2018-08-13T11:51:44.528Z,974.78
2018-08-13T11:52:44.492Z,974.83
2018-08-13T11:53:44.462Z,974.80
2018-08-13T11:54:44.437Z,974.87
2018-08-13T11:55:44.411Z,974.89
2018-08-13T11:56:44.378Z,974.90
2018-08-13T11:57:44.349Z,974.97
2018-08-13T11:58:44.322Z,974.94
2018-08-13T11:59:44.282Z,974.98
2018-08-13T12:00:44.254Z,974.98
2018-08-13T12:01:44.225Z,974.93
2018-08-13T12:02:44.196Z,974.94
2018-08-13T12:03:44.168Z,974.97
2018-08-13T12:04:44.138Z,974.92
2018-08-13T12:05:44.106Z,974.88
2018-08-13T12:06:44.077Z,974.84
2018-08-13T12:07:44.048Z,974.83
2018-08-13T12:08:44.020Z,974.82
2018-08-13T12:09:43.989Z,974.83
2018-08-13T12:10:43.955Z,974.81
2018-08-13T12:11:43.929Z,974.89
2018-08-13T12:12:43.893Z,974.86
2018-08-13T12:13:43.865Z,974.98
2018-08-13T12:14:43.837Z,974.98
2018-08-13T12:15:43.809Z,975.09
2018-08-13T12:16:43.781Z,975.18
2018-08-13T12:17:43.746Z,975.19
2018-08-13T12:18:43.717Z,975.35
2018-08-13T12:19:43.684Z,975.33
2018-08-13T12:20:43.653Z,975.40
2018-08-13T12:21:43.624Z,975.39
2018-08-13T12:22:43.596Z,975.42
2018-08-13T12:23:43.569Z,975.41
2018-08-13T12:24:43.532Z,975.40
2018-08-13T12:25:43.507Z,975.44
2018-08-13T12:26:43.473Z,975.39
2018-08-13T12:27:43.449Z,975.46
2018-08-13T12:28:43.415Z,975.44
2018-08-13T12:29:43.382Z,975.49
2018-08-13T12:30:43.348Z,975.42
2018-08-13T12:31:43.317Z,975.29
2018-08-13T12:32:43.287Z,975.35
2018-08-13T12:33:43.255Z,975.26
2018-08-13T12:34:43.227Z,975.22
2018-08-13T12:35:43.198Z,975.24
2018-08-13T12:36:43.167Z,975.22
2018-08-13T12:37:43.137Z,975.20
2018-08-13T12:38:43.100Z,975.25
2018-08-13T12:39:43.067Z,975.22
2018-08-13T12:40:43.041Z,975.25
2018-08-13T12:41:43.008Z,975.23
2018-08-13T12:42:42.979Z,975.19
2018-08-13T12:43:42.943Z,975.24
2018-08-13T12:44:42.913Z,975.22
2018-08-13T12:45:42.881Z,975.22
2018-08-13T12:46:42.852Z,975.19
2018-08-13T12:47:42.823Z,975.20
2018-08-13T12:48:42.791Z,975.19
2018-08-13T12:49:42.758Z,975.21
2018-08-13T12:50:42.724Z,975.18
2018-08-13T12:51:42.691Z,975.19
2018-08-13T12:52:42.666Z,975.17
2018-08-13T12:53:42.633Z,975.17